00:49
Airports
History
Links
Donate
Help keep this website running!
PayPal
Bitcoin
This page is community maintained. The information is intended for PC simulator navigation or reference.
Always use approved charts for navigation.
EDXZ
Kuehrstedt-Bederkesa
Kuehrstedt-Bederkesa (EDXZ)
K├╝hrstedt, Niedersachsen, Germany (27624)
(C)
Lat/Lng:53° 34' 5.28" N / 8° 47' 21.33" E
53.568134 / 8.789259
Elevation:26'ft / 8mMSL
ID / ICAO:EDXZ
Runways:1
Longest:12-30
Grass 579m / 1,901ft
Controlled:Yes
Nearby Weather00:20 GMT 2017-09-25
Nearby weather at ETMN, Nordholz located 14.8 nautical miles from EDXZ
Altimeter: 30.24
Visibility: 0.5 statute miles
Wind: 8 knots (from 070°)
Temp: 14°c / 57°f
Humidity: 93.7%

METAR: ETMN 250020Z 07008KT 0800 FG VV001 14/13 Q1024 RED

(Powered by phpweather)
Airport Radio Frequencies
Tower: 135
Nearby VORs <50NM
Nearby NDBs
Runway 12 / 30
Dimensions:579.4 x 29.9m 1901' x 98'ft
Surface:Grass
Edge Lights:Medium intensity
Runway 12 [A]Runway 30 [B]
Heading:120°TH 300°TH
Lat:
Lng:
53° 34' 9.98"N
8° 47' 7.63"E
53° 34' 0.58"N
8° 47' 35.03"E
ALS:MALSFMALSF
User Notes and Comments
53° 34' 5.28" N / 8° 47' 21.33" E
Distance To
Airport ID:
Nearby Airports
(C) BREMERHAVEN 9.8 NM
EDWB WSW 244°
(C) Nordholz 14.8 NM
ETMN ( WX ) NNW 338°
(C) Nordholz-Spieka 15.0 NM
EDXN NNW 336°
(U) Karlshoefen 18.9 NM
EDWK SSE 148°
4 Huettenbusch 20.6 NM
EDXU SSE 161°
(C) Seedorf 25.2 NM
EDXS SE 129°
(U) Stade 29.1 NM
EDHS E 91°
VFR Chart
Flight Planning at SkyVector.com